createdAt,value
2022-11-18T00:01:31.188Z,18.30
2022-11-18T00:03:59.377Z,17.90
2022-11-18T00:06:29.775Z,19.30
2022-11-18T00:09:01.368Z,18.90
2022-11-18T00:11:52.154Z,16.30
2022-11-18T00:14:27.482Z,16.50
2022-11-18T00:16:58.571Z,15.50
2022-11-18T00:19:56.701Z,14.70
2022-11-18T00:22:29.760Z,14.50
2022-11-18T00:24:58.176Z,15.20
2022-11-18T00:27:31.067Z,14.30
2022-11-18T00:29:59.207Z,14.60
2022-11-18T00:32:27.272Z,14.20
2022-11-18T00:34:55.391Z,14.30
2022-11-18T00:37:23.377Z,14.50
2022-11-18T00:39:51.858Z,14.80
2022-11-18T00:42:38.712Z,14.90
2022-11-18T00:45:07.245Z,15.00
2022-11-18T00:47:35.765Z,14.70
2022-11-18T00:50:04.395Z,13.90
2022-11-18T00:52:32.320Z,15.00
2022-11-18T00:55:01.028Z,15.10
2022-11-18T00:57:31.213Z,14.50
2022-11-18T00:59:59.458Z,14.20
2022-11-18T01:02:28.158Z,14.50
2022-11-18T01:04:56.177Z,15.10
2022-11-18T01:07:24.226Z,14.80
2022-11-18T01:09:53.923Z,14.60
2022-11-18T01:12:42.155Z,15.30
2022-11-18T01:15:14.307Z,14.30
2022-11-18T01:17:47.229Z,15.10
2022-11-18T01:20:19.149Z,15.40
2022-11-18T01:22:51.216Z,15.60
2022-11-18T01:25:19.621Z,16.10
2022-11-18T01:27:48.126Z,16.40
2022-11-18T01:30:17.118Z,14.90
2022-11-18T01:32:45.500Z,16.10
2022-11-18T01:35:15.451Z,15.60
2022-11-18T01:37:45.750Z,15.70
2022-11-18T01:40:15.295Z,15.30
2022-11-18T01:42:46.280Z,15.20
2022-11-18T01:45:35.966Z,15.10
2022-11-18T01:48:25.706Z,14.60
2022-11-18T01:51:18.486Z,14.30
2022-11-18T01:54:00.458Z,14.30
2022-11-18T01:56:38.733Z,14.50
2022-11-18T01:59:11.337Z,14.00
2022-11-18T02:01:40.208Z,13.80
2022-11-18T02:04:10.182Z,13.80
2022-11-18T02:06:39.691Z,14.60
2022-11-18T02:09:08.218Z,13.90
2022-11-18T02:12:00.864Z,13.10
2022-11-18T02:14:38.786Z,12.60
2022-11-18T02:17:33.984Z,13.60
2022-11-18T02:20:43.579Z,14.40
2022-11-18T02:23:32.164Z,13.80
2022-11-18T02:26:09.201Z,14.80
2022-11-18T02:29:03.314Z,14.00
2022-11-18T02:31:48.508Z,14.00
2022-11-18T02:34:50.281Z,14.10
2022-11-18T02:37:27.457Z,14.30
2022-11-18T02:39:59.959Z,14.60
2022-11-18T02:42:32.471Z,14.00
2022-11-18T02:45:07.078Z,14.00
2022-11-18T02:50:11.581Z,13.40
2022-11-18T02:52:42.119Z,14.10
2022-11-18T02:55:14.043Z,14.20
2022-11-18T02:57:45.009Z,14.00
2022-11-18T03:00:16.554Z,14.20
2022-11-18T03:02:50.510Z,13.70
2022-11-18T03:05:51.764Z,15.40
2022-11-18T03:08:26.355Z,13.80
2022-11-18T03:11:06.565Z,13.30
2022-11-18T03:14:01.541Z,15.00
2022-11-18T03:16:39.168Z,13.50
2022-11-18T03:19:14.382Z,14.20
2022-11-18T03:22:00.580Z,14.30
2022-11-18T03:24:34.702Z,16.30
2022-11-18T03:27:18.552Z,15.30
2022-11-18T03:29:52.699Z,15.40
2022-11-18T03:32:26.844Z,15.70
2022-11-18T03:35:03.458Z,15.60
2022-11-18T03:37:35.083Z,16.70
2022-11-18T03:40:26.610Z,19.20
2022-11-18T03:43:01.562Z,18.80
2022-11-18T03:45:37.707Z,19.70
2022-11-18T03:48:12.479Z,17.90
2022-11-18T03:51:08.351Z,16.80
2022-11-18T03:53:44.627Z,16.60
2022-11-18T03:56:20.486Z,15.30
2022-11-18T03:59:05.814Z,16.70
2022-11-18T04:01:52.619Z,15.50
2022-11-18T04:04:27.486Z,14.60
2022-11-18T04:07:04.030Z,15.00
2022-11-18T04:09:45.114Z,15.60
2022-11-18T04:12:18.813Z,15.10
2022-11-18T04:14:49.967Z,15.20
2022-11-18T04:17:22.150Z,15.10
2022-11-18T04:19:50.787Z,14.00
2022-11-18T04:22:20.489Z,14.90
2022-11-18T04:24:48.838Z,14.20
2022-11-18T04:27:17.406Z,13.90
2022-11-18T04:29:45.821Z,14.60
2022-11-18T04:32:13.886Z,15.70
2022-11-18T04:34:43.951Z,16.90
2022-11-18T04:37:12.021Z,16.70
2022-11-18T04:39:39.994Z,17.00
2022-11-18T04:42:07.953Z,17.60
2022-11-18T04:44:38.129Z,17.80
2022-11-18T04:47:07.316Z,17.60
2022-11-18T04:49:37.267Z,18.40
2022-11-18T04:52:05.750Z,18.30
2022-11-18T04:54:33.935Z,16.70
2022-11-18T04:57:01.993Z,17.60
2022-11-18T04:59:30.831Z,18.10
2022-11-18T05:02:03.959Z,17.00
2022-11-18T05:04:34.999Z,17.50
2022-11-18T05:07:05.032Z,18.60
2022-11-18T05:09:33.395Z,18.40
2022-11-18T05:12:21.241Z,18.40
2022-11-18T05:14:50.761Z,16.60
2022-11-18T05:17:20.038Z,18.20
2022-11-18T05:19:49.406Z,16.50
2022-11-18T05:22:19.511Z,16.50
2022-11-18T05:24:47.609Z,16.00
2022-11-18T05:27:16.938Z,17.40
2022-11-18T05:29:46.335Z,17.30
2022-11-18T05:32:15.850Z,16.90
2022-11-18T05:34:44.589Z,17.60
2022-11-18T05:37:14.468Z,16.30
2022-11-18T05:39:42.803Z,15.40
2022-11-18T05:42:31.136Z,15.50
2022-11-18T05:44:59.283Z,16.40
2022-11-18T05:47:27.527Z,17.60
2022-11-18T05:49:57.113Z,15.70
2022-11-18T05:52:26.672Z,15.80
2022-11-18T05:54:54.944Z,16.60
2022-11-18T05:57:25.439Z,16.50
2022-11-18T05:59:53.979Z,16.20
2022-11-18T06:02:27.088Z,16.60
2022-11-18T06:05:00.739Z,21.50
2022-11-18T06:10:06.280Z,16.10
2022-11-18T06:12:40.868Z,17.60
2022-11-18T06:15:18.632Z,16.80
2022-11-18T06:18:10.554Z,17.30
2022-11-18T06:20:42.230Z,16.80
2022-11-18T06:23:11.068Z,17.60
2022-11-18T06:25:41.942Z,17.90
2022-11-18T06:28:14.365Z,17.60
2022-11-18T06:30:44.495Z,18.40
2022-11-18T06:33:15.663Z,19.20
2022-11-18T06:35:46.247Z,18.00
2022-11-18T06:38:15.337Z,18.90
2022-11-18T06:40:48.549Z,19.70
2022-11-18T06:43:41.634Z,18.90
2022-11-18T06:46:48.489Z,20.20
2022-11-18T06:49:16.967Z,18.80
2022-11-18T06:51:46.492Z,19.30
2022-11-18T06:54:15.811Z,20.40
2022-11-18T06:56:49.018Z,20.40
2022-11-18T06:59:24.259Z,20.80
2022-11-18T07:01:53.788Z,21.60
2022-11-18T07:04:23.516Z,21.50
2022-11-18T07:06:51.732Z,23.00
2022-11-18T07:09:20.978Z,23.70
2022-11-18T07:11:49.270Z,24.10
2022-11-18T07:14:20.935Z,25.30
2022-11-18T07:16:49.305Z,23.20
2022-11-18T07:19:30.183Z,23.50
2022-11-18T07:22:05.488Z,21.70
2022-11-18T07:24:34.517Z,24.40
2022-11-18T07:27:05.104Z,22.80
2022-11-18T07:29:37.940Z,22.80
2022-11-18T07:32:10.270Z,21.20
2022-11-18T07:34:39.695Z,22.10
2022-11-18T07:37:08.864Z,23.40
2022-11-18T07:39:38.811Z,22.10
2022-11-18T07:42:11.097Z,22.80
2022-11-18T07:44:39.226Z,22.90
2022-11-18T07:47:11.848Z,22.50
2022-11-18T07:49:41.366Z,22.70
2022-11-18T07:55:06.987Z,31.70
2022-11-18T07:57:35.082Z,23.20
2022-11-18T08:00:04.879Z,21.40
2022-11-18T08:02:52.855Z,22.30
2022-11-18T08:05:24.292Z,22.80
2022-11-18T08:08:01.568Z,24.50
2022-11-18T08:10:30.927Z,23.20
2022-11-18T08:13:09.052Z,23.90
2022-11-18T08:15:43.518Z,25.10
2022-11-18T08:18:13.982Z,25.10
2022-11-18T08:20:46.274Z,24.50
2022-11-18T08:23:27.324Z,24.20
2022-11-18T08:26:07.391Z,24.30
2022-11-18T08:28:40.745Z,25.00
2022-11-18T08:31:15.098Z,25.30
2022-11-18T08:33:44.700Z,25.50
2022-11-18T08:36:22.764Z,24.30
2022-11-18T08:38:53.204Z,24.20
2022-11-18T08:41:47.030Z,24.40
2022-11-18T08:44:24.333Z,24.80
2022-11-18T08:46:52.736Z,24.50
2022-11-18T08:49:21.672Z,24.80
2022-11-18T08:51:53.168Z,26.30
2022-11-18T08:54:24.071Z,26.40
2022-11-18T08:56:56.343Z,27.20
2022-11-18T08:59:25.720Z,26.50
2022-11-18T09:02:02.816Z,31.70
2022-11-18T09:04:42.225Z,26.20
2022-11-18T09:07:12.668Z,28.30
2022-11-18T09:09:42.411Z,28.10
2022-11-18T09:12:17.771Z,28.80
2022-11-18T09:15:12.917Z,28.60
2022-11-18T09:17:35.584Z,29.20
2022-11-18T09:20:19.949Z,29.30
2022-11-18T09:22:50.337Z,27.10
2022-11-18T09:25:19.863Z,27.70
2022-11-18T09:27:50.139Z,27.70
2022-11-18T09:30:18.805Z,28.10
2022-11-18T09:32:51.197Z,26.90
2022-11-18T09:35:23.394Z,26.40
2022-11-18T09:37:53.380Z,26.40
2022-11-18T09:40:32.056Z,30.90
2022-11-18T09:43:16.320Z,26.10
2022-11-18T09:45:52.188Z,24.30
2022-11-18T09:48:42.563Z,24.40
2022-11-18T09:51:13.432Z,23.50
2022-11-18T09:53:45.221Z,24.30
2022-11-18T09:56:16.201Z,24.10
2022-11-18T09:58:46.647Z,23.80
2022-11-18T10:01:21.122Z,23.50
2022-11-18T10:03:52.443Z,23.30
2022-11-18T10:06:45.487Z,22.80
2022-11-18T10:09:25.869Z,24.30
2022-11-18T10:12:03.428Z,24.50
2022-11-18T10:14:57.178Z,24.40
2022-11-18T10:17:54.857Z,24.40
2022-11-18T10:21:05.332Z,26.20
2022-11-18T10:23:59.206Z,26.50
2022-11-18T10:26:36.963Z,27.10
2022-11-18T10:29:11.369Z,24.90
2022-11-18T10:32:05.837Z,25.00
2022-11-18T10:34:46.340Z,29.30
2022-11-18T10:40:28.951Z,31.20
2022-11-18T10:42:59.290Z,30.20
2022-11-18T10:45:49.186Z,28.20
2022-11-18T10:48:19.154Z,27.80
2022-11-18T10:50:56.150Z,29.10
2022-11-18T10:53:44.160Z,29.90
2022-11-18T10:56:16.123Z,27.40
2022-11-18T10:58:50.650Z,27.60
2022-11-18T11:01:29.170Z,28.40
2022-11-18T11:04:04.884Z,34.50
2022-11-18T11:06:40.453Z,29.30
2022-11-18T11:09:27.146Z,29.10
2022-11-18T11:12:03.703Z,27.10
2022-11-18T11:14:54.666Z,26.30
2022-11-18T11:17:32.191Z,28.10
2022-11-18T11:20:21.173Z,28.60
2022-11-18T11:22:51.209Z,27.40
2022-11-18T11:29:03.638Z,27.70
2022-11-18T11:32:03.364Z,27.40
2022-11-18T11:35:07.179Z,26.20
2022-11-18T11:37:39.537Z,25.40
2022-11-18T11:40:40.842Z,25.70
2022-11-18T11:43:20.983Z,23.70
2022-11-18T11:46:18.016Z,23.80
2022-11-18T11:49:01.801Z,24.10
2022-11-18T11:52:20.987Z,21.90
2022-11-18T11:55:26.810Z,21.10
2022-11-18T11:57:58.070Z,22.00
2022-11-18T12:00:30.999Z,21.50
2022-11-18T12:03:27.602Z,23.00
2022-11-18T12:05:58.086Z,23.70
2022-11-18T12:08:32.126Z,24.30
2022-11-18T12:11:08.427Z,24.30
2022-11-18T12:13:55.361Z,24.40
2022-11-18T12:16:44.228Z,32.10
2022-11-18T12:19:16.970Z,28.50
2022-11-18T12:21:53.598Z,27.50
2022-11-18T12:24:31.541Z,28.20
2022-11-18T12:27:03.621Z,24.50
2022-11-18T12:29:41.520Z,27.80
2022-11-18T12:32:45.601Z,26.10
2022-11-18T12:35:17.923Z,23.90
2022-11-18T12:37:54.053Z,21.40
2022-11-18T12:40:41.570Z,21.70
2022-11-18T12:43:44.937Z,21.80
2022-11-18T12:46:59.758Z,22.00
2022-11-18T12:52:01.982Z,26.00
2022-11-18T12:54:33.141Z,25.30
2022-11-18T12:59:57.901Z,29.60
2022-11-18T13:02:33.263Z,22.50
2022-11-18T13:05:22.117Z,21.30
2022-11-18T13:08:15.789Z,22.40
2022-11-18T13:10:43.934Z,21.70
2022-11-18T13:13:23.101Z,22.00
2022-11-18T13:16:11.335Z,21.60
2022-11-18T13:18:53.124Z,21.80
2022-11-18T13:21:42.644Z,22.70
2022-11-18T13:24:16.882Z,21.50
2022-11-18T13:26:46.883Z,23.80
2022-11-18T13:29:22.529Z,21.90
2022-11-18T13:32:23.143Z,21.70
2022-11-18T13:35:18.367Z,22.00
2022-11-18T13:37:51.647Z,22.50
2022-11-18T13:40:30.801Z,22.50
2022-11-18T13:43:00.339Z,21.40
2022-11-18T13:45:31.399Z,24.70
2022-11-18T13:48:10.285Z,23.80
2022-11-18T13:50:53.081Z,23.80
2022-11-18T13:53:54.268Z,24.80
2022-11-18T13:56:31.787Z,24.40
2022-11-18T13:59:28.903Z,25.30
2022-11-18T14:01:59.196Z,26.80
2022-11-18T14:04:33.219Z,28.40
2022-11-18T14:07:23.684Z,32.10
2022-11-18T14:10:07.407Z,37.30
2022-11-18T14:12:36.819Z,33.80
2022-11-18T14:15:37.893Z,36.10
2022-11-18T14:18:21.607Z,37.60
2022-11-18T14:21:10.842Z,37.10
2022-11-18T14:23:44.042Z,33.50
2022-11-18T14:26:12.621Z,34.10
2022-11-18T14:28:53.597Z,31.80
2022-11-18T14:31:26.359Z,28.00
2022-11-18T14:34:21.354Z,27.80
2022-11-18T14:36:51.806Z,30.70
2022-11-18T14:39:29.316Z,28.30
2022-11-18T14:41:59.844Z,22.80
2022-11-18T14:44:29.199Z,21.80
2022-11-18T14:47:01.903Z,22.20
2022-11-18T14:49:32.890Z,21.70
2022-11-18T14:52:04.178Z,22.00
2022-11-18T14:54:35.514Z,22.60
2022-11-18T14:57:06.302Z,22.30
2022-11-18T14:59:35.312Z,19.70
2022-11-18T15:02:13.935Z,18.20
2022-11-18T15:04:44.326Z,16.60
2022-11-18T15:07:23.109Z,14.90
2022-11-18T15:09:52.439Z,15.60
2022-11-18T15:12:21.325Z,13.80
2022-11-18T15:14:49.641Z,15.00
2022-11-18T15:17:20.340Z,10.90
2022-11-18T15:19:51.157Z,11.20
2022-11-18T15:22:22.959Z,13.40
2022-11-18T15:24:50.928Z,14.20
2022-11-18T15:27:19.095Z,14.00
2022-11-18T15:29:50.884Z,9.70
2022-11-18T15:32:20.845Z,7.50
2022-11-18T15:34:49.000Z,7.50
2022-11-18T15:37:18.380Z,8.60
2022-11-18T15:39:50.470Z,7.90
2022-11-18T15:42:23.143Z,7.40
2022-11-18T15:44:54.336Z,8.10
2022-11-18T15:47:22.469Z,11.20
2022-11-18T15:49:51.072Z,16.10
2022-11-18T15:52:19.319Z,40.10
2022-11-18T15:54:47.606Z,16.40
2022-11-18T15:57:16.218Z,33.00
2022-11-18T15:59:45.681Z,24.90
2022-11-18T16:02:14.818Z,15.70
2022-11-18T16:04:43.536Z,15.90
2022-11-18T16:07:13.426Z,18.10
2022-11-18T16:10:00.781Z,12.50
2022-11-18T16:12:49.857Z,15.20
2022-11-18T16:15:37.898Z,18.80
2022-11-18T16:18:07.816Z,14.40
2022-11-18T16:20:37.123Z,27.10
2022-11-18T16:23:06.289Z,16.70
2022-11-18T16:25:36.061Z,20.00
2022-11-18T16:28:07.321Z,25.20
2022-11-18T16:30:55.697Z,24.00
2022-11-18T16:33:24.480Z,22.50
2022-11-18T16:35:52.910Z,27.80
2022-11-18T16:38:23.896Z,28.50
2022-11-18T16:40:58.228Z,25.70
2022-11-18T16:43:28.222Z,19.30
2022-11-18T16:45:58.256Z,16.20
2022-11-18T16:48:26.162Z,12.50
2022-11-18T16:51:26.694Z,13.20
2022-11-18T16:54:02.203Z,12.90
2022-11-18T16:56:34.750Z,13.40
2022-11-18T16:59:11.641Z,12.50
2022-11-18T17:01:43.502Z,14.60
2022-11-18T17:04:12.245Z,12.20
2022-11-18T17:06:41.877Z,11.00
2022-11-18T17:09:20.747Z,10.40
2022-11-18T17:11:54.028Z,10.70
2022-11-18T17:14:24.305Z,14.50
2022-11-18T17:16:54.344Z,18.70
2022-11-18T17:19:27.341Z,27.40
2022-11-18T17:22:01.716Z,28.40
2022-11-18T17:24:31.765Z,20.50
2022-11-18T17:27:00.579Z,23.60
2022-11-18T17:29:29.477Z,22.00
2022-11-18T17:32:01.402Z,20.00
2022-11-18T17:34:30.066Z,35.80
2022-11-18T17:37:03.284Z,21.60
2022-11-18T17:39:35.486Z,11.60
2022-11-18T17:42:14.386Z,15.60
2022-11-18T17:44:44.359Z,17.60
2022-11-18T17:47:17.297Z,30.30
2022-11-18T17:49:54.288Z,28.20
2022-11-18T17:52:24.589Z,19.10
2022-11-18T17:54:52.733Z,17.80
2022-11-18T17:57:22.375Z,15.70
2022-11-18T17:59:52.983Z,18.00
2022-11-18T18:02:21.813Z,17.20
2022-11-18T18:04:51.305Z,15.40
2022-11-18T18:07:20.763Z,14.60
2022-11-18T18:09:49.588Z,12.70
2022-11-18T18:12:38.134Z,14.20
2022-11-18T18:15:07.151Z,19.20
2022-11-18T18:17:35.939Z,11.90
2022-11-18T18:20:04.632Z,20.70
2022-11-18T18:22:34.135Z,12.30
2022-11-18T18:25:03.654Z,13.30
2022-11-18T18:27:38.761Z,12.80
2022-11-18T18:30:12.865Z,14.00
2022-11-18T18:32:41.954Z,17.80
2022-11-18T18:35:12.418Z,19.00
2022-11-18T18:37:40.911Z,12.30
2022-11-18T18:40:09.772Z,22.50
2022-11-18T18:42:48.496Z,13.80
2022-11-18T18:45:46.926Z,12.50
2022-11-18T18:48:20.902Z,12.80
2022-11-18T18:50:49.342Z,11.90
2022-11-18T18:53:17.554Z,12.10
2022-11-18T18:55:46.769Z,12.10
2022-11-18T18:58:14.997Z,16.80
2022-11-18T19:00:43.952Z,18.20
2022-11-18T19:03:12.247Z,17.80
2022-11-18T19:06:12.625Z,15.80
2022-11-18T19:08:29.006Z,20.90
2022-11-18T19:11:07.266Z,23.20
2022-11-18T19:13:36.257Z,23.10
2022-11-18T19:16:06.737Z,26.30
2022-11-18T19:18:37.789Z,25.20
2022-11-18T19:21:07.073Z,23.50
2022-11-18T19:23:35.083Z,26.00
2022-11-18T19:26:17.442Z,18.40
2022-11-18T19:29:01.208Z,23.90
2022-11-18T19:31:32.979Z,22.80
2022-11-18T19:34:02.558Z,21.40
2022-11-18T19:36:34.240Z,21.40
2022-11-18T19:39:02.434Z,21.70
2022-11-18T19:41:30.927Z,22.20
2022-11-18T19:43:59.970Z,20.60
2022-11-18T19:46:31.597Z,22.00
2022-11-18T19:49:00.548Z,20.30
2022-11-18T19:51:28.669Z,21.80
2022-11-18T19:53:59.824Z,18.20
2022-11-18T19:56:30.311Z,20.60
2022-11-18T19:58:59.648Z,20.30
2022-11-18T20:01:30.412Z,19.70
2022-11-18T20:04:07.971Z,20.00
2022-11-18T20:06:38.010Z,15.30
2022-11-18T20:09:11.244Z,17.60
2022-11-18T20:11:40.044Z,16.70
2022-11-18T20:14:12.714Z,16.90
2022-11-18T20:16:40.941Z,14.80
2022-11-18T20:19:14.660Z,16.40
2022-11-18T20:24:18.622Z,18.00
2022-11-18T20:26:48.891Z,17.70
2022-11-18T20:29:17.571Z,19.20
2022-11-18T20:31:47.641Z,18.90
2022-11-18T20:34:17.224Z,18.30
2022-11-18T20:36:46.644Z,18.10
2022-11-18T20:39:17.465Z,17.60
2022-11-18T20:42:06.229Z,17.50
2022-11-18T20:44:34.245Z,19.20
2022-11-18T20:47:02.658Z,20.80
2022-11-18T20:49:31.260Z,19.70
2022-11-18T20:52:00.541Z,23.80
2022-11-18T20:54:28.882Z,32.30
2022-11-18T20:56:58.292Z,31.00
2022-11-18T20:59:27.653Z,37.30
2022-11-18T21:01:55.774Z,25.30
2022-11-18T21:04:25.008Z,22.60
2022-11-18T21:06:59.148Z,22.50
2022-11-18T21:09:31.872Z,24.70
2022-11-18T21:12:00.570Z,19.90
2022-11-18T21:14:28.834Z,26.10
2022-11-18T21:17:02.020Z,23.90
2022-11-18T21:19:34.009Z,22.90
2022-11-18T21:22:02.368Z,23.60
2022-11-18T21:24:32.704Z,23.50
2022-11-18T21:27:03.516Z,20.30
2022-11-18T21:29:32.806Z,19.30
2022-11-18T21:32:04.260Z,21.00
2022-11-18T21:34:33.972Z,19.80
2022-11-18T21:37:02.094Z,19.40
2022-11-18T21:39:31.827Z,19.70
2022-11-18T21:41:59.866Z,19.80
2022-11-18T21:44:28.668Z,20.00
2022-11-18T21:46:57.789Z,19.60
2022-11-18T21:49:25.795Z,20.40
2022-11-18T21:51:55.091Z,20.10
2022-11-18T21:54:23.035Z,19.30
2022-11-18T21:56:51.074Z,19.10
2022-11-18T21:59:19.465Z,19.80
2022-11-18T22:01:48.053Z,19.20
2022-11-18T22:04:36.031Z,19.20
2022-11-18T22:07:05.418Z,18.50
2022-11-18T22:09:36.828Z,20.10
2022-11-18T22:12:07.096Z,18.80
2022-11-18T22:14:36.705Z,18.90
2022-11-18T22:17:05.364Z,20.30
2022-11-18T22:19:33.729Z,20.40
2022-11-18T22:22:02.469Z,19.40
2022-11-18T22:24:31.172Z,19.30
2022-11-18T22:26:59.194Z,28.10
2022-11-18T22:29:27.709Z,26.90
2022-11-18T22:31:55.870Z,37.90
2022-11-18T22:34:23.995Z,55.80
2022-11-18T22:36:52.056Z,49.10
2022-11-18T22:39:20.091Z,34.40
2022-11-18T22:42:06.872Z,26.40
2022-11-18T22:44:35.507Z,24.40
2022-11-18T22:47:03.489Z,21.90
2022-11-18T22:49:31.727Z,20.30
2022-11-18T22:51:59.699Z,23.10
2022-11-18T22:54:38.777Z,21.90
2022-11-18T22:57:07.459Z,26.70
2022-11-18T22:59:35.464Z,29.60
2022-11-18T23:02:03.765Z,22.20
2022-11-18T23:04:31.732Z,22.90
2022-11-18T23:06:59.719Z,21.00
2022-11-18T23:09:28.388Z,24.50
2022-11-18T23:12:16.309Z,24.20
2022-11-18T23:14:44.416Z,21.00
2022-11-18T23:17:12.791Z,20.60
2022-11-18T23:19:43.804Z,19.10
2022-11-18T23:22:12.780Z,20.40
2022-11-18T23:24:41.553Z,22.10
2022-11-18T23:27:09.820Z,21.20
2022-11-18T23:29:38.871Z,21.10
2022-11-18T23:32:06.905Z,19.30
2022-11-18T23:34:34.904Z,19.70
2022-11-18T23:37:04.211Z,19.70
2022-11-18T23:39:32.084Z,23.10
2022-11-18T23:42:00.012Z,19.30
2022-11-18T23:44:48.664Z,21.50
2022-11-18T23:47:16.641Z,22.60
2022-11-18T23:49:44.772Z,20.90
2022-11-18T23:52:15.069Z,18.80
2022-11-18T23:54:43.115Z,18.00
2022-11-18T23:57:11.111Z,20.00
2022-11-18T23:59:40.412Z,21.80
